createdAt,value
2019-02-12T00:01:26.305Z,3.50
2019-02-12T00:04:00.084Z,3.60
2019-02-12T00:06:29.904Z,3.60
2019-02-12T00:08:57.860Z,3.50
2019-02-12T00:11:25.928Z,3.50
2019-02-12T00:13:53.930Z,3.50
2019-02-12T00:16:21.832Z,3.50
2019-02-12T00:18:49.870Z,3.50
2019-02-12T00:21:17.863Z,3.50
2019-02-12T00:23:45.860Z,3.50
2019-02-12T00:26:13.838Z,3.50
2019-02-12T00:28:41.799Z,3.50
2019-02-12T00:31:09.709Z,3.50
2019-02-12T00:33:37.854Z,3.50
2019-02-12T00:36:05.776Z,3.40
2019-02-12T00:38:33.725Z,3.40
2019-02-12T00:41:01.630Z,3.40
2019-02-12T00:43:29.613Z,3.40
2019-02-12T00:45:57.546Z,3.30
2019-02-12T00:48:25.481Z,3.30
2019-02-12T00:50:53.508Z,3.30
2019-02-12T00:53:21.568Z,3.30
2019-02-12T00:55:49.471Z,3.40
2019-02-12T00:58:17.396Z,3.30
2019-02-12T01:00:45.348Z,3.30
2019-02-12T01:03:13.382Z,3.30
2019-02-12T01:05:41.452Z,3.30
2019-02-12T01:08:09.349Z,3.20
2019-02-12T01:10:37.282Z,3.20
2019-02-12T01:13:05.190Z,3.20
2019-02-12T01:15:33.501Z,3.20
2019-02-12T01:18:01.591Z,3.10
2019-02-12T01:20:29.537Z,3.10
2019-02-12T01:22:57.513Z,3.20
2019-02-12T01:25:25.443Z,3.20
2019-02-12T01:27:53.362Z,3.20
2019-02-12T01:30:21.388Z,3.20
2019-02-12T01:32:49.324Z,3.20
2019-02-12T01:35:17.601Z,3.30
2019-02-12T01:37:45.538Z,3.30
2019-02-12T01:40:13.851Z,3.30
2019-02-12T01:42:41.827Z,3.40
2019-02-12T01:45:10.611Z,3.50
2019-02-12T01:47:38.555Z,3.40
2019-02-12T01:50:06.859Z,3.50
2019-02-12T01:52:34.751Z,3.40
2019-02-12T01:55:02.670Z,3.30
2019-02-12T01:57:30.593Z,3.40
2019-02-12T01:59:58.487Z,3.40
2019-02-12T02:02:26.448Z,3.40
2019-02-12T02:04:54.433Z,3.30
2019-02-12T02:07:22.343Z,3.40
2019-02-12T02:09:50.204Z,3.40
2019-02-12T02:12:18.108Z,3.50
2019-02-12T02:14:46.019Z,3.50
2019-02-12T02:17:13.925Z,3.40
2019-02-12T02:19:41.904Z,3.40
2019-02-12T02:22:09.964Z,3.40
2019-02-12T02:24:37.904Z,3.40
2019-02-12T02:27:05.823Z,3.40
2019-02-12T02:29:33.721Z,3.50
2019-02-12T02:32:01.687Z,3.50
2019-02-12T02:34:29.579Z,3.50
2019-02-12T02:36:57.545Z,3.50
2019-02-12T02:39:25.515Z,3.40
2019-02-12T02:41:53.400Z,3.50
2019-02-12T02:44:21.272Z,3.40
2019-02-12T02:46:49.197Z,3.50
2019-02-12T02:49:17.123Z,3.50
2019-02-12T02:51:53.639Z,3.50
2019-02-12T02:54:14.689Z,3.60
2019-02-12T02:56:42.612Z,3.60
2019-02-12T02:59:10.592Z,3.60
2019-02-12T03:01:38.560Z,3.60
2019-02-12T03:04:06.470Z,3.60
2019-02-12T03:06:34.453Z,3.50
2019-02-12T03:09:03.436Z,3.40
2019-02-12T03:11:31.315Z,3.40
2019-02-12T03:13:59.183Z,3.40
2019-02-12T03:16:27.226Z,3.40
2019-02-12T03:18:55.158Z,3.40
2019-02-12T03:21:23.102Z,3.40
2019-02-12T03:23:51.006Z,3.40
2019-02-12T03:26:19.032Z,3.50
2019-02-12T03:28:46.949Z,3.30
2019-02-12T03:31:14.908Z,3.30
2019-02-12T03:33:42.972Z,3.20
2019-02-12T03:36:10.854Z,3.10
2019-02-12T03:38:38.812Z,3.00
2019-02-12T03:41:06.708Z,3.00
2019-02-12T03:43:34.589Z,2.90
2019-02-12T03:46:02.480Z,3.00
2019-02-12T03:48:30.509Z,3.00
2019-02-12T03:50:58.483Z,3.00
2019-02-12T03:53:26.380Z,3.00
2019-02-12T03:55:54.319Z,3.00
2019-02-12T03:58:22.315Z,2.90
2019-02-12T04:00:50.339Z,2.80
2019-02-12T04:03:18.233Z,2.80
2019-02-12T04:05:46.261Z,2.80
2019-02-12T04:08:14.184Z,2.80
2019-02-12T04:10:42.159Z,2.80
2019-02-12T04:13:10.120Z,2.80
2019-02-12T04:15:38.332Z,2.70
2019-02-12T04:18:06.241Z,2.70
2019-02-12T04:20:34.318Z,2.70
2019-02-12T04:23:02.308Z,2.70
2019-02-12T04:25:30.236Z,2.70
2019-02-12T04:27:58.262Z,2.80
2019-02-12T04:30:26.206Z,2.80
2019-02-12T04:32:54.123Z,2.70
2019-02-12T04:35:22.113Z,2.80
2019-02-12T04:37:50.090Z,2.80
2019-02-12T04:40:18.046Z,2.80
2019-02-12T04:42:45.961Z,2.80
2019-02-12T04:45:13.900Z,2.70
2019-02-12T04:47:41.855Z,2.70
2019-02-12T04:50:10.180Z,2.80
2019-02-12T04:52:38.131Z,2.90
2019-02-12T04:55:06.814Z,2.90
2019-02-12T04:57:34.821Z,2.90
2019-02-12T05:00:02.727Z,2.90
2019-02-12T05:02:30.780Z,2.80
2019-02-12T05:04:58.684Z,2.80
2019-02-12T05:07:26.663Z,2.80
2019-02-12T05:09:54.801Z,2.90
2019-02-12T05:12:24.067Z,2.80
2019-02-12T05:14:52.007Z,2.80
2019-02-12T05:17:19.884Z,2.80
2019-02-12T05:19:47.844Z,2.80
2019-02-12T05:22:15.835Z,2.80
2019-02-12T05:24:43.714Z,2.90
2019-02-12T05:27:11.645Z,2.80
2019-02-12T05:29:39.605Z,2.80
2019-02-12T05:32:07.504Z,2.90
2019-02-12T05:34:35.415Z,2.80
2019-02-12T05:37:03.406Z,2.80
2019-02-12T05:39:31.313Z,2.90
2019-02-12T05:41:59.318Z,2.80
2019-02-12T05:44:27.230Z,2.90
2019-02-12T05:46:55.152Z,2.90
2019-02-12T05:49:23.166Z,2.90
2019-02-12T05:51:51.142Z,3.00
2019-02-12T05:54:19.061Z,3.00
2019-02-12T05:56:47.090Z,3.10
2019-02-12T05:59:15.266Z,3.10
2019-02-12T06:01:43.263Z,3.10
2019-02-12T06:04:11.223Z,3.20
2019-02-12T06:06:39.133Z,3.30
2019-02-12T06:09:07.120Z,3.30
2019-02-12T06:11:45.729Z,3.30
2019-02-12T06:14:13.690Z,3.30
2019-02-12T06:16:41.605Z,3.20
2019-02-12T06:19:11.588Z,3.30
2019-02-12T06:21:39.426Z,3.30
2019-02-12T06:24:07.768Z,3.40
2019-02-12T06:26:37.988Z,3.50
2019-02-12T06:29:05.616Z,3.50
2019-02-12T06:31:33.499Z,3.50
2019-02-12T06:34:01.478Z,3.60
2019-02-12T06:36:29.483Z,3.50
2019-02-12T06:38:57.370Z,3.50
2019-02-12T06:41:25.330Z,3.50
2019-02-12T06:43:53.275Z,3.40
2019-02-12T06:46:21.179Z,3.40
2019-02-12T06:48:49.134Z,3.50
2019-02-12T06:51:17.014Z,3.50
2019-02-12T06:53:44.950Z,3.50
2019-02-12T06:56:12.850Z,3.50
2019-02-12T06:58:40.924Z,3.50
2019-02-12T07:01:08.845Z,3.60
2019-02-12T07:03:47.835Z,3.60
2019-02-12T07:06:33.796Z,3.60
2019-02-12T07:09:05.323Z,3.60
2019-02-12T07:11:55.602Z,3.70
2019-02-12T07:14:32.264Z,3.80
2019-02-12T07:17:14.116Z,3.70
2019-02-12T07:19:46.123Z,3.80
2019-02-12T07:22:39.138Z,3.60
2019-02-12T07:25:41.433Z,3.70
2019-02-12T07:28:18.624Z,3.70
2019-02-12T07:31:05.797Z,3.60
2019-02-12T07:33:47.443Z,3.80
2019-02-12T07:36:22.387Z,3.90
2019-02-12T07:39:00.928Z,3.90
2019-02-12T07:41:35.145Z,3.80
2019-02-12T07:44:37.705Z,3.70
2019-02-12T07:47:23.747Z,3.70
2019-02-12T07:50:09.339Z,3.70
2019-02-12T07:52:40.310Z,3.80
2019-02-12T07:55:12.701Z,3.80
2019-02-12T07:57:58.092Z,3.80
2019-02-12T08:00:49.013Z,3.90
2019-02-12T08:03:24.643Z,4.00
2019-02-12T08:06:18.071Z,3.90
2019-02-12T08:09:05.301Z,3.80
2019-02-12T08:11:54.771Z,3.90
2019-02-12T08:14:31.773Z,3.80
2019-02-12T08:17:37.418Z,3.80
2019-02-12T08:20:23.327Z,3.80
2019-02-12T08:22:55.047Z,3.90
2019-02-12T08:25:47.263Z,3.90
2019-02-12T08:28:20.863Z,3.90
2019-02-12T08:31:10.025Z,3.90
2019-02-12T08:34:09.057Z,3.90
2019-02-12T08:37:01.429Z,3.90
2019-02-12T08:39:46.981Z,3.80
2019-02-12T08:42:37.204Z,3.90
2019-02-12T08:45:22.983Z,3.90
2019-02-12T08:47:55.121Z,3.90
2019-02-12T08:50:34.622Z,4.00
2019-02-12T08:53:13.527Z,4.10
2019-02-12T08:56:13.095Z,4.20
2019-02-12T08:59:06.214Z,4.20
2019-02-12T09:01:42.504Z,4.30
2019-02-12T09:04:28.312Z,4.40
2019-02-12T09:07:05.626Z,4.50
2019-02-12T09:09:51.863Z,4.40
2019-02-12T09:12:28.815Z,4.40
2019-02-12T09:15:01.383Z,4.30
2019-02-12T09:18:07.598Z,4.40
2019-02-12T09:21:10.303Z,4.40
2019-02-12T09:24:01.468Z,4.40
2019-02-12T09:26:50.340Z,4.60
2019-02-12T09:29:22.068Z,4.60
2019-02-12T09:32:07.785Z,4.60
2019-02-12T09:34:45.427Z,4.60
2019-02-12T09:37:33.916Z,4.70
2019-02-12T09:40:05.028Z,4.70
2019-02-12T09:42:36.153Z,4.60
2019-02-12T09:45:26.442Z,4.80
2019-02-12T09:48:09.792Z,5.00
2019-02-12T09:50:56.950Z,5.20
2019-02-12T09:53:42.812Z,5.40
2019-02-12T09:56:29.981Z,5.30
2019-02-12T09:59:06.777Z,5.40
2019-02-12T10:01:55.759Z,5.50
2019-02-12T10:04:31.749Z,5.60
2019-02-12T10:07:07.963Z,5.80
2019-02-12T10:09:58.389Z,5.80
2019-02-12T10:12:32.659Z,5.90
2019-02-12T10:15:25.807Z,6.00
2019-02-12T10:18:00.257Z,5.90
2019-02-12T10:20:35.072Z,5.90
2019-02-12T10:23:25.351Z,6.00
2019-02-12T10:25:56.474Z,6.10
2019-02-12T10:28:36.439Z,6.10
2019-02-12T10:31:12.269Z,5.90
2019-02-12T10:33:40.245Z,5.90
2019-02-12T10:36:08.289Z,7.00
2019-02-12T10:38:36.281Z,8.30
2019-02-12T10:41:04.204Z,9.80
2019-02-12T10:43:32.296Z,10.60
2019-02-12T10:46:00.242Z,11.30
2019-02-12T10:48:28.230Z,11.20
2019-02-12T10:50:56.283Z,10.90
2019-02-12T10:53:24.284Z,10.20
2019-02-12T10:55:52.274Z,10.50
2019-02-12T10:58:20.178Z,11.30
2019-02-12T11:00:49.307Z,10.80
2019-02-12T11:03:36.493Z,9.50
2019-02-12T11:06:04.555Z,9.70
2019-02-12T11:08:32.462Z,10.90
2019-02-12T11:11:00.467Z,11.40
2019-02-12T11:13:28.351Z,12.30
2019-02-12T11:15:57.652Z,13.30
2019-02-12T11:18:26.613Z,13.40
2019-02-12T11:20:55.509Z,13.60
2019-02-12T11:23:24.438Z,13.60
2019-02-12T11:25:53.463Z,14.40
2019-02-12T11:28:22.354Z,15.20
2019-02-12T11:30:51.278Z,14.00
2019-02-12T11:33:20.164Z,12.60
2019-02-12T11:35:49.095Z,11.70
2019-02-12T11:38:18.109Z,10.80
2019-02-12T11:40:46.976Z,9.90
2019-02-12T11:43:30.821Z,9.10
2019-02-12T11:45:59.782Z,8.60
2019-02-12T11:48:28.652Z,8.40
2019-02-12T11:50:57.607Z,8.40
2019-02-12T11:53:28.054Z,8.50
2019-02-12T11:55:57.112Z,9.90
2019-02-12T11:58:25.888Z,9.80
2019-02-12T12:01:02.897Z,9.20
2019-02-12T12:03:31.767Z,8.50
2019-02-12T12:06:03.024Z,8.30
2019-02-12T12:08:31.871Z,8.00
2019-02-12T12:11:00.704Z,7.90
2019-02-12T12:13:29.557Z,7.70
2019-02-12T12:15:58.322Z,7.20
2019-02-12T12:18:27.109Z,7.20
2019-02-12T12:20:55.946Z,7.20
2019-02-12T12:23:24.729Z,7.20
2019-02-12T12:25:53.540Z,7.30
2019-02-12T12:28:22.332Z,7.30
2019-02-12T12:30:51.270Z,7.30
2019-02-12T12:33:20.181Z,7.10
2019-02-12T12:35:49.107Z,7.10
2019-02-12T12:38:17.920Z,7.30
2019-02-12T12:40:46.950Z,7.30
2019-02-12T12:43:15.790Z,7.30
2019-02-12T12:45:44.665Z,7.10
2019-02-12T12:48:13.484Z,7.20
2019-02-12T12:50:42.239Z,7.20
2019-02-12T12:53:11.004Z,7.10
2019-02-12T12:55:39.790Z,7.20
2019-02-12T12:58:08.640Z,7.10
2019-02-12T13:00:37.498Z,7.00
2019-02-12T13:03:06.388Z,7.00
2019-02-12T13:05:35.288Z,7.00
2019-02-12T13:08:04.191Z,6.90
2019-02-12T13:10:32.971Z,6.90
2019-02-12T13:13:01.743Z,6.90
2019-02-12T13:15:30.540Z,6.90
2019-02-12T13:17:59.332Z,7.00
2019-02-12T13:20:28.104Z,7.00
2019-02-12T13:22:56.918Z,6.80
2019-02-12T13:25:25.772Z,6.70
2019-02-12T13:27:54.633Z,6.70
2019-02-12T13:30:23.516Z,6.80
2019-02-12T13:32:52.296Z,6.90
2019-02-12T13:35:21.099Z,7.00
2019-02-12T13:37:49.875Z,7.00
2019-02-12T13:40:18.748Z,7.10
2019-02-12T13:42:47.555Z,7.20
2019-02-12T13:45:16.419Z,7.20
2019-02-12T13:47:45.310Z,7.30
2019-02-12T13:50:14.257Z,7.10
2019-02-12T13:52:43.179Z,7.20
2019-02-12T13:55:17.355Z,7.30
2019-02-12T13:57:42.779Z,7.20
2019-02-12T14:00:13.552Z,7.40
2019-02-12T14:02:42.395Z,7.20
2019-02-12T14:05:13.652Z,7.30
2019-02-12T14:07:42.526Z,7.40
2019-02-12T14:10:11.538Z,7.20
2019-02-12T14:12:40.363Z,7.00
2019-02-12T14:15:10.691Z,7.00
2019-02-12T14:17:39.613Z,7.00
2019-02-12T14:20:10.566Z,7.00
2019-02-12T14:22:39.291Z,6.90
2019-02-12T14:25:08.820Z,6.70
2019-02-12T14:27:37.662Z,6.80
2019-02-12T14:30:07.283Z,6.70
2019-02-12T14:32:36.103Z,6.70
2019-02-12T14:35:05.152Z,6.80
2019-02-12T14:37:33.978Z,6.70
2019-02-12T14:40:02.784Z,6.80
2019-02-12T14:42:31.585Z,6.80
2019-02-12T14:45:00.413Z,6.90
2019-02-12T14:47:29.280Z,7.00
2019-02-12T14:49:58.080Z,6.80
2019-02-12T14:52:26.909Z,6.90
2019-02-12T14:54:55.801Z,6.80
2019-02-12T14:57:24.667Z,6.80
2019-02-12T14:59:53.636Z,6.80
2019-02-12T15:02:22.420Z,6.80
2019-02-12T15:04:51.236Z,6.70
2019-02-12T15:07:20.033Z,6.80
2019-02-12T15:09:48.992Z,6.70
2019-02-12T15:12:17.805Z,6.70
2019-02-12T15:14:46.703Z,6.60
2019-02-12T15:17:15.561Z,6.60
2019-02-12T15:19:44.531Z,6.60
2019-02-12T15:22:13.401Z,6.50
2019-02-12T15:24:42.185Z,6.50
2019-02-12T15:27:11.402Z,6.30
2019-02-12T15:29:40.258Z,6.50
2019-02-12T15:32:09.086Z,6.70
2019-02-12T15:34:40.065Z,6.50
2019-02-12T15:37:08.573Z,6.50
2019-02-12T15:39:37.471Z,6.40
2019-02-12T15:42:06.369Z,6.30
2019-02-12T15:44:35.389Z,6.30
2019-02-12T15:47:04.265Z,6.30
2019-02-12T15:49:33.045Z,6.30
2019-02-12T15:52:01.932Z,6.40
2019-02-12T15:54:30.795Z,6.30
2019-02-12T15:56:59.535Z,6.20
2019-02-12T15:59:29.483Z,6.10
2019-02-12T16:01:58.857Z,6.20
2019-02-12T16:04:27.676Z,6.10
2019-02-12T16:06:57.883Z,6.00
2019-02-12T16:09:27.030Z,6.10
2019-02-12T16:11:55.784Z,6.10
2019-02-12T16:14:24.612Z,6.10
2019-02-12T16:16:54.117Z,6.00
2019-02-12T16:19:23.049Z,6.00
2019-02-12T16:21:51.852Z,6.00
2019-02-12T16:24:20.668Z,5.90
2019-02-12T16:26:49.475Z,5.90
2019-02-12T16:29:18.433Z,6.00
2019-02-12T16:31:50.641Z,6.00
2019-02-12T16:34:19.541Z,5.80
2019-02-12T16:36:48.457Z,5.80
2019-02-12T16:39:33.269Z,5.80
2019-02-12T16:42:02.592Z,5.90
2019-02-12T16:44:31.610Z,6.00
2019-02-12T16:47:00.605Z,5.80
2019-02-12T16:49:29.483Z,5.90
2019-02-12T16:51:58.433Z,5.80
2019-02-12T16:54:27.332Z,5.80
2019-02-12T16:56:56.145Z,5.80
2019-02-12T16:59:24.987Z,5.70
2019-02-12T17:01:53.783Z,5.70
2019-02-12T17:04:22.780Z,5.80
2019-02-12T17:06:51.692Z,5.70
2019-02-12T17:09:20.513Z,5.60
2019-02-12T17:11:49.375Z,5.80
2019-02-12T17:14:18.379Z,5.90
2019-02-12T17:16:47.325Z,5.70
2019-02-12T17:19:16.197Z,5.70
2019-02-12T17:21:45.099Z,5.80
2019-02-12T17:24:14.015Z,5.80
2019-02-12T17:26:43.131Z,5.80
2019-02-12T17:29:12.062Z,5.80
2019-02-12T17:31:41.365Z,5.70
2019-02-12T17:34:10.643Z,5.50
2019-02-12T17:36:39.845Z,5.60
2019-02-12T17:39:08.769Z,5.50
2019-02-12T17:41:37.807Z,5.50
2019-02-12T17:44:06.737Z,5.40
2019-02-12T17:46:35.590Z,5.40
2019-02-12T17:49:06.432Z,5.40
2019-02-12T17:51:38.455Z,5.40
2019-02-12T17:54:07.565Z,5.40
2019-02-12T17:56:36.505Z,5.30
2019-02-12T17:59:05.281Z,5.30
2019-02-12T18:01:34.208Z,5.20
2019-02-12T18:04:02.980Z,5.20
2019-02-12T18:06:31.747Z,5.20
2019-02-12T18:09:00.760Z,5.30
2019-02-12T18:11:30.000Z,5.50
2019-02-12T18:13:58.796Z,5.50
2019-02-12T18:16:27.695Z,5.50
2019-02-12T18:18:56.495Z,5.40
2019-02-12T18:21:25.298Z,5.50
2019-02-12T18:23:54.223Z,5.20
2019-02-12T18:26:23.220Z,5.20
2019-02-12T18:28:51.962Z,5.40
2019-02-12T18:31:20.887Z,5.50
2019-02-12T18:33:49.803Z,5.50
2019-02-12T18:36:18.741Z,5.60
2019-02-12T18:38:47.611Z,5.60
2019-02-12T18:41:16.551Z,5.50
2019-02-12T18:43:46.378Z,5.50
2019-02-12T18:46:15.379Z,5.30
2019-02-12T18:48:44.465Z,5.40
2019-02-12T18:51:13.767Z,5.60
2019-02-12T18:53:43.379Z,5.60
2019-02-12T18:56:12.432Z,5.60
2019-02-12T18:58:41.683Z,5.60
2019-02-12T19:01:10.834Z,5.70
2019-02-12T19:03:39.682Z,5.70
2019-02-12T19:06:08.691Z,5.70
2019-02-12T19:08:37.611Z,5.80
2019-02-12T19:11:06.508Z,5.60
2019-02-12T19:13:35.393Z,5.70
2019-02-12T19:16:23.659Z,5.60
2019-02-12T19:18:52.640Z,5.80
2019-02-12T19:21:40.952Z,5.60
2019-02-12T19:24:10.019Z,5.70
2019-02-12T19:26:39.342Z,5.70
2019-02-12T19:29:08.703Z,5.70
2019-02-12T19:31:39.400Z,5.50
2019-02-12T19:34:08.647Z,5.40
2019-02-12T19:36:37.597Z,5.30
2019-02-12T19:39:07.244Z,5.40
2019-02-12T19:41:38.952Z,5.50
2019-02-12T19:44:08.107Z,5.70
2019-02-12T19:46:37.080Z,5.70
2019-02-12T19:49:05.884Z,5.70
2019-02-12T19:51:34.955Z,5.80
2019-02-12T19:54:03.858Z,5.60
2019-02-12T19:56:32.721Z,5.70
2019-02-12T19:59:01.652Z,5.80
2019-02-12T20:01:30.660Z,5.70
2019-02-12T20:03:59.549Z,5.70
2019-02-12T20:06:28.474Z,5.60
2019-02-12T20:08:57.449Z,5.50
2019-02-12T20:11:26.302Z,5.50
2019-02-12T20:13:55.226Z,5.50
2019-02-12T20:16:24.087Z,5.50
2019-02-12T20:18:53.005Z,5.30
2019-02-12T20:21:21.856Z,5.30
2019-02-12T20:23:50.815Z,5.40
2019-02-12T20:26:19.711Z,5.20
2019-02-12T20:28:48.598Z,5.20
2019-02-12T20:31:17.669Z,5.10
2019-02-12T20:33:47.001Z,5.00
2019-02-12T20:36:15.948Z,5.10
2019-02-12T20:38:44.900Z,5.00
2019-02-12T20:41:13.863Z,5.10
2019-02-12T20:43:42.840Z,5.10
2019-02-12T20:46:11.704Z,5.10
2019-02-12T20:48:40.603Z,5.30
2019-02-12T20:51:09.532Z,5.20
2019-02-12T20:53:38.457Z,5.20
2019-02-12T20:56:07.399Z,5.20
2019-02-12T20:58:36.224Z,5.10
2019-02-12T21:01:07.007Z,5.00
2019-02-12T21:03:35.978Z,5.20
2019-02-12T21:06:04.843Z,5.10
2019-02-12T21:08:33.754Z,5.10
2019-02-12T21:11:02.672Z,5.20
2019-02-12T21:13:31.567Z,5.20
2019-02-12T21:16:00.393Z,5.30
2019-02-12T21:18:29.390Z,5.40
2019-02-12T21:20:58.237Z,5.30
2019-02-12T21:23:27.071Z,5.20
2019-02-12T21:25:56.146Z,5.30
2019-02-12T21:28:24.956Z,5.20
2019-02-12T21:30:56.545Z,5.20
2019-02-12T21:33:25.448Z,5.00
2019-02-12T21:35:54.284Z,5.00
2019-02-12T21:38:23.294Z,5.00
2019-02-12T21:40:52.177Z,4.90
2019-02-12T21:43:21.034Z,4.80
2019-02-12T21:45:49.901Z,4.90
2019-02-12T21:48:18.723Z,4.90
2019-02-12T21:50:47.642Z,5.00
2019-02-12T21:53:16.503Z,5.20
2019-02-12T21:55:45.325Z,5.10
2019-02-12T21:58:14.199Z,5.00
2019-02-12T22:00:42.976Z,5.10
2019-02-12T22:03:12.073Z,5.10
2019-02-12T22:05:40.995Z,5.10
2019-02-12T22:08:09.866Z,5.20
2019-02-12T22:10:46.261Z,5.20
2019-02-12T22:13:09.251Z,5.20
2019-02-12T22:15:38.048Z,5.30
2019-02-12T22:18:06.879Z,5.30
2019-02-12T22:20:35.748Z,5.30
2019-02-12T22:23:04.667Z,5.10
2019-02-12T22:25:33.541Z,5.10
2019-02-12T22:28:02.399Z,5.20
2019-02-12T22:30:31.263Z,5.40
2019-02-12T22:33:02.546Z,5.30
2019-02-12T22:35:31.446Z,5.40
2019-02-12T22:38:00.291Z,5.50
2019-02-12T22:40:29.179Z,5.50
2019-02-12T22:43:00.560Z,5.50
2019-02-12T22:45:29.379Z,5.60
2019-02-12T22:48:00.578Z,5.60
2019-02-12T22:50:31.318Z,5.50
2019-02-12T22:53:01.329Z,5.60
2019-02-12T22:55:30.129Z,5.40
2019-02-12T22:57:59.017Z,5.70
2019-02-12T23:00:55.036Z,5.70
2019-02-12T23:03:24.060Z,5.70
2019-02-12T23:05:52.908Z,5.60
2019-02-12T23:08:21.678Z,5.60
2019-02-12T23:10:50.520Z,5.60
2019-02-12T23:13:19.392Z,5.70
2019-02-12T23:15:48.333Z,5.60
2019-02-12T23:18:17.179Z,5.80
2019-02-12T23:20:46.085Z,5.60
2019-02-12T23:23:14.875Z,5.70
2019-02-12T23:25:43.672Z,5.80
2019-02-12T23:28:12.436Z,5.70
2019-02-12T23:30:41.290Z,5.80
2019-02-12T23:33:10.351Z,5.80
2019-02-12T23:35:39.154Z,5.70
2019-02-12T23:38:07.923Z,5.80
2019-02-12T23:40:36.719Z,5.60
2019-02-12T23:43:05.513Z,5.80
2019-02-12T23:45:34.441Z,5.90
2019-02-12T23:48:03.666Z,5.90
2019-02-12T23:50:32.536Z,5.90
2019-02-12T23:53:01.388Z,5.70
2019-02-12T23:55:30.172Z,5.70
2019-02-12T23:58:05.754Z,5.70
